Portada
METAR-TAF:

METAR-TAF

Aeropuertos :

St. Paul Downtown Airport (Holman Field)

Saint Paul, Minnesota, Estados Unidos

latitud: 44-55-49N, longitud: 093-02-53W, altitud: 214 m

Observación

El informe se hizo hace 23 minutos, a las 07:53 UTC
Viento calma
Temperatura 11°C
Humedad 62%
Presión 1026 hPa
Visibilidad: 16.1 km
Cielo despejado

METAR: KSTP 310753Z AUTO 00000KT 10SM CLR 11/04 A3029 RMK AO2 SLP256 T01060044

Hora: 03:16 (08:16 UTC)


TAF: falta

Observaciones y pronósticos meteorológicos de más de 4000 aeropuertos (mensajes METAR y TAF).

Los puntos amarillos y rojos representan las estaciones disponibles.

Ponga el ratón en el punto deseado para ver el nombre de la estación.

Haga clic para ver las observaciones y los pronósticos meteorológicos.

Para cambiar el mapa : haga clic en los botones verdes con una cruz de color negro para hacer un zoom, en el botón verde con un guión para alejar o en las flechas verdes para mapas adyacentes.


METAR-TAF: